createdAt,value
2018-01-07T00:02:37.220Z,8.20
2018-01-07T00:05:05.464Z,8.10
2018-01-07T00:07:32.972Z,8.10
2018-01-07T00:10:00.459Z,8.20
2018-01-07T00:12:28.708Z,8.10
2018-01-07T00:14:56.212Z,8.00
2018-01-07T00:17:24.463Z,8.10
2018-01-07T00:19:51.964Z,8.00
2018-01-07T00:22:20.216Z,8.00
2018-01-07T00:24:47.719Z,8.00
2018-01-07T00:27:15.974Z,8.00
2018-01-07T00:29:43.472Z,8.00
2018-01-07T00:32:10.954Z,8.00
2018-01-07T00:34:39.217Z,8.00
2018-01-07T00:37:06.692Z,7.90
2018-01-07T00:39:34.188Z,8.00
2018-01-07T00:42:01.676Z,7.90
2018-01-07T00:44:29.180Z,8.00
2018-01-07T00:46:56.665Z,8.00
2018-01-07T00:49:24.160Z,8.00
2018-01-07T00:51:52.403Z,8.00
2018-01-07T00:54:19.913Z,8.00
2018-01-07T00:56:48.160Z,8.00
2018-01-07T00:59:15.655Z,7.90
2018-01-07T01:04:55.468Z,7.90
2018-01-07T01:07:23.711Z,7.80
2018-01-07T01:09:51.204Z,7.80
2018-01-07T01:12:18.682Z,7.80
2018-01-07T01:14:46.184Z,7.80
2018-01-07T01:17:13.664Z,7.80
2018-01-07T01:19:41.164Z,7.80
2018-01-07T01:22:08.645Z,7.80
2018-01-07T01:27:36.398Z,7.80
2018-01-07T01:30:04.690Z,7.80
2018-01-07T01:32:32.940Z,7.80
2018-01-07T01:35:00.439Z,7.70
2018-01-07T01:37:28.696Z,7.80
2018-01-07T01:39:56.187Z,7.70
2018-01-07T01:42:24.441Z,7.80
2018-01-07T01:44:51.924Z,7.70
2018-01-07T01:47:19.423Z,7.80
2018-01-07T01:49:47.663Z,7.70
2018-01-07T01:52:15.156Z,7.70
2018-01-07T01:54:42.638Z,7.80
2018-01-07T01:57:10.140Z,7.80
2018-01-07T01:59:37.632Z,7.70
2018-01-07T02:02:17.593Z,7.80
2018-01-07T02:04:45.077Z,7.70
2018-01-07T02:07:12.575Z,7.70
2018-01-07T02:09:40.055Z,7.70
2018-01-07T02:12:07.550Z,7.70
2018-01-07T02:14:35.048Z,7.60
2018-01-07T02:17:03.303Z,7.70
2018-01-07T02:19:31.588Z,7.60
2018-01-07T02:22:14.604Z,7.60
2018-01-07T02:24:42.084Z,7.50
2018-01-07T02:27:10.344Z,7.60
2018-01-07T02:29:37.825Z,7.50
2018-01-07T02:32:05.342Z,7.60
2018-01-07T02:34:32.819Z,7.60
2018-01-07T02:37:00.324Z,7.50
2018-01-07T02:39:28.083Z,7.60
2018-01-07T02:41:55.601Z,7.60
2018-01-07T02:44:23.854Z,7.60
2018-01-07T02:46:51.356Z,7.50
2018-01-07T02:49:19.612Z,7.60
2018-01-07T02:51:47.133Z,7.50
2018-01-07T02:54:15.451Z,7.60
2018-01-07T02:56:42.928Z,7.60
2018-01-07T02:59:10.476Z,7.60
2018-01-07T03:01:47.850Z,7.60
2018-01-07T03:04:16.112Z,7.60
2018-01-07T03:06:43.588Z,7.60
2018-01-07T03:09:11.097Z,7.60
2018-01-07T03:11:38.575Z,7.60
2018-01-07T03:14:06.075Z,7.60
2018-01-07T03:16:33.557Z,7.60
2018-01-07T03:19:01.056Z,7.60
2018-01-07T03:21:29.298Z,7.50
2018-01-07T03:27:07.375Z,7.40
2018-01-07T03:29:34.872Z,7.40
2018-01-07T03:32:03.120Z,7.40
2018-01-07T03:34:30.619Z,7.40
2018-01-07T03:36:58.093Z,7.40
2018-01-07T03:39:26.355Z,7.40
2018-01-07T03:41:53.830Z,7.40
2018-01-07T03:44:21.335Z,7.40
2018-01-07T03:46:49.583Z,7.40
2018-01-07T03:49:17.083Z,7.40
2018-01-07T03:51:45.327Z,7.40
2018-01-07T03:54:12.818Z,7.40
2018-01-07T03:56:40.295Z,7.40
2018-01-07T03:59:07.800Z,7.40
2018-01-07T04:01:59.725Z,7.40
2018-01-07T04:04:27.986Z,7.50
2018-01-07T04:06:55.465Z,7.40
2018-01-07T04:09:22.960Z,7.40
2018-01-07T04:11:51.207Z,7.40
2018-01-07T04:14:18.695Z,7.30
2018-01-07T04:17:02.843Z,7.40
2018-01-07T04:19:30.370Z,7.40
2018-01-07T04:21:57.835Z,7.40
2018-01-07T04:24:25.335Z,7.40
2018-01-07T04:26:52.816Z,7.30
2018-01-07T04:29:20.291Z,7.20
2018-01-07T04:31:47.824Z,7.30
2018-01-07T04:34:15.303Z,7.30
2018-01-07T04:36:42.828Z,7.20
2018-01-07T04:39:10.308Z,7.20
2018-01-07T04:41:38.572Z,7.30
2018-01-07T04:44:06.056Z,7.20
2018-01-07T04:46:33.556Z,7.20
2018-01-07T04:49:01.028Z,7.10
2018-01-07T04:51:28.530Z,7.10
2018-01-07T04:53:56.009Z,7.10
2018-01-07T04:56:23.519Z,7.10
2018-01-07T04:58:51.759Z,7.20
2018-01-07T05:01:31.895Z,7.20
2018-01-07T05:03:59.372Z,7.20
2018-01-07T05:06:26.875Z,7.20
2018-01-07T05:08:54.352Z,7.20
2018-01-07T05:11:21.888Z,7.10
2018-01-07T05:13:49.343Z,7.10
2018-01-07T05:16:16.845Z,7.10
2018-01-07T05:18:44.325Z,7.00
2018-01-07T05:21:11.816Z,7.10
2018-01-07T05:23:39.291Z,7.10
2018-01-07T05:26:07.556Z,7.10
2018-01-07T05:28:35.031Z,7.00
2018-01-07T05:31:02.503Z,7.00
2018-01-07T05:33:30.258Z,7.00
2018-01-07T05:35:57.732Z,7.00
2018-01-07T05:38:25.231Z,7.00
2018-01-07T05:40:52.711Z,7.00
2018-01-07T05:43:20.980Z,7.00
2018-01-07T05:45:48.455Z,7.00
2018-01-07T05:48:15.951Z,7.00
2018-01-07T05:50:44.200Z,7.10
2018-01-07T05:53:11.699Z,7.00
2018-01-07T05:55:39.939Z,7.10
2018-01-07T05:58:07.427Z,7.00
2018-01-07T06:00:36.919Z,7.10
2018-01-07T06:03:04.415Z,7.00
2018-01-07T06:05:31.967Z,7.00
2018-01-07T06:07:59.469Z,7.00
2018-01-07T06:10:26.954Z,7.00
2018-01-07T06:12:55.221Z,7.00
2018-01-07T06:15:22.699Z,7.00
2018-01-07T06:17:50.196Z,7.00
2018-01-07T06:20:22.604Z,7.00
2018-01-07T06:22:50.103Z,7.00
2018-01-07T06:25:17.592Z,7.00
2018-01-07T06:27:45.087Z,7.00
2018-01-07T06:30:13.343Z,7.00
2018-01-07T06:32:40.843Z,7.00
2018-01-07T06:35:09.092Z,7.00
2018-01-07T06:37:36.582Z,6.90
2018-01-07T06:40:04.079Z,6.90
2018-01-07T06:42:31.555Z,6.90
2018-01-07T06:44:59.043Z,6.90
2018-01-07T06:47:26.518Z,6.90
2018-01-07T06:49:54.036Z,7.00
2018-01-07T06:52:21.516Z,6.90
2018-01-07T06:54:49.787Z,6.90
2018-01-07T06:57:17.267Z,6.80
2018-01-07T06:59:45.536Z,6.90
2018-01-07T07:02:23.062Z,6.80
2018-01-07T07:04:51.330Z,6.80
2018-01-07T07:07:18.814Z,6.80
2018-01-07T07:09:47.080Z,6.90
2018-01-07T07:12:14.555Z,6.80
2018-01-07T07:14:42.046Z,6.90
2018-01-07T07:17:10.290Z,6.90
2018-01-07T07:19:37.791Z,6.90
2018-01-07T07:22:05.268Z,6.90
2018-01-07T07:24:32.762Z,6.80
2018-01-07T07:29:59.455Z,6.80
2018-01-07T07:32:26.931Z,6.90
2018-01-07T07:34:54.423Z,6.90
2018-01-07T07:37:21.896Z,6.80
2018-01-07T07:39:49.393Z,6.80
2018-01-07T07:42:16.907Z,6.80
2018-01-07T07:44:44.415Z,6.80
2018-01-07T07:47:11.892Z,6.80
2018-01-07T07:49:39.363Z,6.80
2018-01-07T07:52:06.864Z,6.80
2018-01-07T07:54:35.108Z,6.70
2018-01-07T07:57:02.601Z,6.60
2018-01-07T07:59:30.076Z,6.70
2018-01-07T08:02:00.891Z,6.70
2018-01-07T08:04:28.363Z,6.80
2018-01-07T08:06:55.875Z,6.70
2018-01-07T08:09:25.331Z,6.70
2018-01-07T08:11:52.829Z,6.70
2018-01-07T08:14:20.298Z,6.80
2018-01-07T08:16:47.795Z,6.90
2018-01-07T08:19:15.272Z,6.80
2018-01-07T08:21:43.530Z,6.80
2018-01-07T08:24:10.999Z,6.80
2018-01-07T08:26:44.360Z,6.90
2018-01-07T08:29:11.836Z,6.90
2018-01-07T08:31:39.328Z,6.90
2018-01-07T08:34:06.807Z,6.90
2018-01-07T08:36:35.207Z,6.90
2018-01-07T08:39:02.683Z,6.90
2018-01-07T08:41:30.179Z,6.90
2018-01-07T08:43:57.655Z,6.90
2018-01-07T08:46:25.919Z,6.90
2018-01-07T08:48:53.392Z,6.90
2018-01-07T08:51:20.896Z,6.90
2018-01-07T08:53:48.368Z,6.90
2018-01-07T08:56:15.830Z,6.90
2018-01-07T08:58:44.089Z,6.90
2018-01-07T09:01:11.571Z,6.80
2018-01-07T09:03:39.836Z,6.90
2018-01-07T09:06:07.315Z,6.90
2018-01-07T09:08:35.076Z,6.90
2018-01-07T09:11:02.595Z,6.90
2018-01-07T09:13:30.992Z,6.90
2018-01-07T09:15:58.476Z,7.00
2018-01-07T09:18:25.960Z,6.90
2018-01-07T09:20:53.435Z,6.90
2018-01-07T09:23:21.033Z,7.00
2018-01-07T09:25:48.508Z,7.00
2018-01-07T09:28:16.024Z,7.00
2018-01-07T09:30:43.508Z,7.00
2018-01-07T09:33:11.772Z,7.00
2018-01-07T09:35:39.253Z,6.90
2018-01-07T09:38:06.748Z,7.00
2018-01-07T09:40:34.231Z,7.00
2018-01-07T09:43:01.724Z,7.00
2018-01-07T09:45:29.971Z,7.00
2018-01-07T09:47:57.450Z,7.00
2018-01-07T09:50:24.948Z,7.00
2018-01-07T09:52:52.492Z,7.00
2018-01-07T09:55:19.996Z,7.00
2018-01-07T09:57:48.240Z,7.00
2018-01-07T10:00:21.059Z,7.00
2018-01-07T10:02:54.270Z,7.00
2018-01-07T10:05:22.551Z,7.00
2018-01-07T10:07:50.025Z,7.00
2018-01-07T10:10:18.324Z,7.00
2018-01-07T10:12:45.807Z,7.00
2018-01-07T10:15:14.065Z,7.00
2018-01-07T10:17:41.564Z,6.90
2018-01-07T10:20:09.830Z,7.00
2018-01-07T10:22:37.342Z,7.00
2018-01-07T10:25:04.843Z,7.00
2018-01-07T10:27:32.319Z,7.00
2018-01-07T10:29:59.807Z,7.00
2018-01-07T10:32:27.280Z,7.00
2018-01-07T10:34:54.843Z,7.00
2018-01-07T10:37:22.336Z,7.00
2018-01-07T10:39:49.841Z,7.00
2018-01-07T10:42:17.324Z,7.00
2018-01-07T10:44:44.833Z,6.90
2018-01-07T10:47:16.070Z,7.00
2018-01-07T10:49:43.579Z,7.00
2018-01-07T10:52:11.047Z,7.00
2018-01-07T10:54:39.437Z,7.00
2018-01-07T10:57:07.728Z,7.10
2018-01-07T10:59:35.965Z,7.00
2018-01-07T11:02:38.660Z,7.00
2018-01-07T11:05:06.173Z,7.00
2018-01-07T11:07:33.655Z,7.00
2018-01-07T11:10:01.124Z,7.00
2018-01-07T11:12:29.384Z,7.00
2018-01-07T11:14:56.864Z,6.90
2018-01-07T11:17:24.372Z,7.00
2018-01-07T11:19:51.843Z,7.00
2018-01-07T11:22:19.354Z,6.90
2018-01-07T11:24:46.848Z,7.00
2018-01-07T11:27:14.371Z,7.00
2018-01-07T11:29:41.855Z,6.90
2018-01-07T11:32:09.353Z,7.00
2018-01-07T11:34:36.838Z,7.00
2018-01-07T11:37:04.332Z,7.00
2018-01-07T11:39:31.818Z,7.10
2018-01-07T11:41:59.302Z,6.90
2018-01-07T11:44:26.776Z,6.90
2018-01-07T11:46:54.326Z,6.90
2018-01-07T11:49:21.804Z,7.00
2018-01-07T11:51:49.298Z,6.90
2018-01-07T11:54:16.771Z,6.90
2018-01-07T11:56:44.263Z,6.90
2018-01-07T11:59:11.725Z,6.90
2018-01-07T12:01:39.215Z,7.00
2018-01-07T12:04:07.463Z,7.00
2018-01-07T12:06:34.950Z,7.00
2018-01-07T12:09:02.422Z,7.00
2018-01-07T12:11:29.927Z,7.00
2018-01-07T12:13:58.186Z,7.00
2018-01-07T12:16:25.683Z,6.90
2018-01-07T12:18:54.396Z,7.00
2018-01-07T12:21:21.883Z,6.90
2018-01-07T12:23:49.375Z,6.90
2018-01-07T12:26:16.859Z,6.90
2018-01-07T12:28:44.343Z,6.90
2018-01-07T12:31:12.052Z,6.90
2018-01-07T12:33:39.590Z,6.90
2018-01-07T12:36:07.835Z,6.90
2018-01-07T12:38:35.386Z,6.90
2018-01-07T12:41:02.984Z,7.00
2018-01-07T12:43:31.344Z,7.00
2018-01-07T12:45:58.830Z,7.00
2018-01-07T12:48:26.384Z,7.00
2018-01-07T12:50:53.858Z,7.10
2018-01-07T12:53:21.352Z,7.10
2018-01-07T12:55:48.837Z,7.00
2018-01-07T12:58:16.364Z,7.10
2018-01-07T13:00:47.345Z,7.10
2018-01-07T13:03:15.884Z,7.10
2018-01-07T13:05:44.201Z,7.20
2018-01-07T13:08:11.711Z,7.10
2018-01-07T13:10:39.220Z,7.10
2018-01-07T13:13:09.444Z,7.20
2018-01-07T13:15:37.728Z,7.20
2018-01-07T13:18:05.229Z,7.20
2018-01-07T13:20:32.790Z,7.20
2018-01-07T13:23:01.378Z,7.30
2018-01-07T13:25:28.892Z,7.30
2018-01-07T13:27:56.375Z,7.30
2018-01-07T13:30:23.880Z,7.30
2018-01-07T13:32:51.368Z,7.20
2018-01-07T13:35:19.019Z,7.20
2018-01-07T13:37:46.492Z,7.20
2018-01-07T13:40:13.993Z,7.20
2018-01-07T13:42:41.472Z,7.30
2018-01-07T13:45:08.990Z,7.30
2018-01-07T13:47:36.461Z,7.20
2018-01-07T13:50:03.959Z,7.20
2018-01-07T13:52:32.198Z,7.20
2018-01-07T13:54:59.699Z,7.10
2018-01-07T13:57:27.171Z,7.20
2018-01-07T13:59:54.704Z,7.20
2018-01-07T14:02:25.788Z,7.10
2018-01-07T14:04:53.298Z,7.10
2018-01-07T14:07:20.762Z,7.10
2018-01-07T14:09:48.283Z,7.10
2018-01-07T14:12:15.755Z,7.10
2018-01-07T14:14:43.218Z,7.10
2018-01-07T14:17:10.708Z,7.10
2018-01-07T14:19:38.174Z,7.10
2018-01-07T14:22:07.175Z,6.90
2018-01-07T14:24:34.650Z,6.90
2018-01-07T14:27:02.147Z,7.00
2018-01-07T14:29:30.398Z,7.00
2018-01-07T14:31:57.886Z,6.90
2018-01-07T14:34:25.364Z,6.90
2018-01-07T14:36:53.624Z,7.00
2018-01-07T14:39:21.124Z,6.90
2018-01-07T14:41:49.382Z,6.90
2018-01-07T14:44:16.875Z,6.90
2018-01-07T14:46:44.397Z,6.90
2018-01-07T14:49:11.955Z,6.90
2018-01-07T14:51:39.478Z,6.90
2018-01-07T14:54:06.960Z,6.90
2018-01-07T14:56:34.455Z,6.90
2018-01-07T14:59:01.924Z,6.90
2018-01-07T15:01:29.421Z,6.90
2018-01-07T15:03:56.899Z,6.90
2018-01-07T15:06:24.400Z,6.90
2018-01-07T15:08:51.871Z,6.90
2018-01-07T15:11:19.382Z,6.90
2018-01-07T15:13:46.864Z,6.90
2018-01-07T15:16:14.336Z,6.80
2018-01-07T15:18:41.831Z,6.80
2018-01-07T15:21:09.308Z,6.80
2018-01-07T15:23:36.818Z,6.80
2018-01-07T15:26:05.065Z,6.80
2018-01-07T15:28:32.558Z,6.70
2018-01-07T15:31:01.811Z,6.70
2018-01-07T15:33:29.319Z,6.70
2018-01-07T15:35:56.796Z,6.80
2018-01-07T15:38:24.320Z,6.80
2018-01-07T15:40:51.803Z,6.70
2018-01-07T15:43:19.296Z,6.80
2018-01-07T15:45:46.903Z,6.80
2018-01-07T15:48:15.167Z,6.70
2018-01-07T15:50:42.642Z,6.60
2018-01-07T15:53:10.136Z,6.70
2018-01-07T15:55:38.378Z,6.70
2018-01-07T15:58:11.368Z,6.70
2018-01-07T16:00:38.843Z,6.60
2018-01-07T16:03:06.331Z,6.60
2018-01-07T16:05:33.799Z,6.60
2018-01-07T16:08:01.295Z,6.60
2018-01-07T16:10:29.537Z,6.60
2018-01-07T16:12:57.031Z,6.50
2018-01-07T16:15:24.525Z,6.50
2018-01-07T16:17:52.806Z,6.60
2018-01-07T16:20:26.077Z,6.60
2018-01-07T16:22:53.563Z,6.50
2018-01-07T16:25:21.055Z,6.50
2018-01-07T16:27:49.298Z,6.50
2018-01-07T16:30:16.799Z,6.50
2018-01-07T16:32:44.280Z,6.60
2018-01-07T16:35:12.549Z,6.50
2018-01-07T16:37:40.036Z,6.50
2018-01-07T16:40:08.297Z,6.50
2018-01-07T16:42:35.777Z,6.50
2018-01-07T16:45:03.321Z,6.50
2018-01-07T16:47:30.783Z,6.50
2018-01-07T16:49:58.288Z,6.50
2018-01-07T16:52:25.770Z,6.40
2018-01-07T16:54:54.050Z,6.40
2018-01-07T16:57:21.529Z,6.40
2018-01-07T16:59:49.025Z,6.40
2018-01-07T17:02:16.495Z,6.40
2018-01-07T17:04:43.991Z,6.40
2018-01-07T17:07:11.476Z,6.40
2018-01-07T17:09:38.975Z,6.40
2018-01-07T17:12:06.452Z,6.40
2018-01-07T17:14:33.925Z,6.40
2018-01-07T17:17:01.440Z,6.40
2018-01-07T17:19:28.907Z,6.40
2018-01-07T17:21:56.423Z,6.30
2018-01-07T17:24:23.923Z,6.40
2018-01-07T17:26:51.416Z,6.40
2018-01-07T17:29:18.887Z,6.40
2018-01-07T17:31:46.374Z,6.40
2018-01-07T17:34:13.966Z,6.40
2018-01-07T17:36:42.256Z,6.30
2018-01-07T17:39:09.726Z,6.30
2018-01-07T17:41:37.225Z,6.40
2018-01-07T17:44:05.527Z,6.40
2018-01-07T17:46:33.025Z,6.40
2018-01-07T17:49:00.507Z,6.40
2018-01-07T17:51:35.523Z,6.40
2018-01-07T17:54:06.707Z,6.40
2018-01-07T17:56:34.202Z,6.30
2018-01-07T17:59:01.680Z,6.30
2018-01-07T18:01:29.191Z,6.30
2018-01-07T18:03:56.675Z,6.40
2018-01-07T18:06:24.180Z,6.30
2018-01-07T18:08:51.659Z,6.30
2018-01-07T18:11:19.150Z,6.30
2018-01-07T18:13:47.392Z,6.30
2018-01-07T18:16:14.895Z,6.30
2018-01-07T18:18:43.160Z,6.40
2018-01-07T18:21:10.639Z,6.30
2018-01-07T18:23:38.126Z,6.40
2018-01-07T18:26:05.600Z,6.30
2018-01-07T18:28:33.874Z,6.30
2018-01-07T18:31:01.355Z,6.30
2018-01-07T18:33:29.632Z,6.30
2018-01-07T18:35:57.147Z,6.30
2018-01-07T18:38:24.638Z,6.30
2018-01-07T18:40:52.124Z,6.30
2018-01-07T18:43:19.619Z,6.30
2018-01-07T18:45:47.100Z,6.30
2018-01-07T18:48:15.356Z,6.30
2018-01-07T18:50:42.837Z,6.20
2018-01-07T18:53:10.334Z,6.30
2018-01-07T18:55:38.575Z,6.20
2018-01-07T18:58:06.078Z,6.20
2018-01-07T19:00:34.322Z,6.40
2018-01-07T19:03:01.823Z,6.30
2018-01-07T19:05:29.317Z,6.40
2018-01-07T19:07:56.829Z,6.30
2018-01-07T19:10:24.350Z,6.30
2018-01-07T19:12:53.267Z,6.30
2018-01-07T19:15:28.915Z,6.20
2018-01-07T19:17:56.419Z,6.30
2018-01-07T19:20:23.920Z,6.30
2018-01-07T19:22:51.419Z,6.30
2018-01-07T19:25:18.921Z,6.40
2018-01-07T19:27:47.260Z,6.40
2018-01-07T19:30:14.715Z,6.30
2018-01-07T19:32:42.198Z,6.30
2018-01-07T19:35:09.707Z,6.30
2018-01-07T19:37:37.196Z,6.30
2018-01-07T19:40:04.700Z,6.30
2018-01-07T19:42:32.231Z,6.30
2018-01-07T19:44:59.688Z,6.30
2018-01-07T19:47:28.005Z,6.30
2018-01-07T19:49:56.236Z,6.30
2018-01-07T19:52:23.732Z,6.20
2018-01-07T19:54:52.009Z,6.30
2018-01-07T19:57:20.281Z,6.30
2018-01-07T19:59:47.795Z,6.20
2018-01-07T20:02:15.267Z,6.20
2018-01-07T20:04:42.893Z,6.10
2018-01-07T20:07:10.379Z,6.10
2018-01-07T20:09:38.659Z,6.20
2018-01-07T20:12:06.167Z,6.10
2018-01-07T20:14:33.687Z,6.20
2018-01-07T20:17:01.176Z,6.20
2018-01-07T20:19:28.676Z,6.20
2018-01-07T20:21:56.155Z,6.20
2018-01-07T20:24:23.652Z,6.10
2018-01-07T20:26:51.157Z,6.10
2018-01-07T20:29:19.416Z,6.20
2018-01-07T20:31:46.915Z,6.10
2018-01-07T20:34:19.459Z,6.20
2018-01-07T20:36:46.964Z,6.10
2018-01-07T20:39:14.447Z,6.20
2018-01-07T20:41:41.956Z,6.20
2018-01-07T20:44:09.438Z,6.10
2018-01-07T20:46:36.939Z,6.10
2018-01-07T20:49:04.434Z,6.20
2018-01-07T20:51:32.696Z,6.10
2018-01-07T20:54:00.184Z,6.10
2018-01-07T20:56:27.688Z,6.10
2018-01-07T20:58:55.163Z,6.10
2018-01-07T21:01:22.666Z,6.10
2018-01-07T21:03:50.170Z,6.10
2018-01-07T21:06:18.443Z,6.10
2018-01-07T21:08:45.916Z,6.00
2018-01-07T21:11:13.443Z,6.10
2018-01-07T21:13:40.953Z,6.10
2018-01-07T21:16:08.428Z,6.10
2018-01-07T21:18:35.911Z,6.10
2018-01-07T21:21:04.335Z,6.10
2018-01-07T21:23:31.834Z,6.10
2018-01-07T21:25:59.343Z,6.00
2018-01-07T21:28:27.609Z,6.10
2018-01-07T21:30:55.096Z,6.10
2018-01-07T21:33:22.588Z,6.10
2018-01-07T21:35:50.832Z,6.10
2018-01-07T21:38:19.319Z,6.10
2018-01-07T21:40:46.803Z,6.10
2018-01-07T21:43:14.304Z,6.00
2018-01-07T21:45:42.558Z,6.00
2018-01-07T21:48:10.063Z,6.00
2018-01-07T21:50:38.303Z,6.00
2018-01-07T21:53:05.802Z,6.00
2018-01-07T21:55:33.282Z,6.00
2018-01-07T21:58:01.564Z,6.00
2018-01-07T22:00:40.913Z,6.00
2018-01-07T22:03:20.204Z,6.10
2018-01-07T22:05:55.392Z,6.10
2018-01-07T22:08:22.897Z,6.10
2018-01-07T22:10:51.155Z,6.10
2018-01-07T22:13:18.656Z,6.10
2018-01-07T22:15:46.906Z,6.10
2018-01-07T22:18:14.406Z,6.10
2018-01-07T22:20:42.654Z,6.00
2018-01-07T22:23:10.168Z,6.00
2018-01-07T22:25:38.422Z,6.10
2018-01-07T22:28:05.924Z,6.00
2018-01-07T22:30:34.163Z,6.10
2018-01-07T22:33:01.644Z,6.00
2018-01-07T22:35:29.148Z,6.10
2018-01-07T22:37:57.412Z,6.10
2018-01-07T22:40:24.915Z,6.10
2018-01-07T22:42:52.509Z,6.10
2018-01-07T22:45:20.015Z,6.10
2018-01-07T22:47:53.153Z,6.10
2018-01-07T22:50:21.419Z,6.10
2018-01-07T22:52:48.895Z,6.10
2018-01-07T22:55:16.387Z,6.10
2018-01-07T22:57:44.627Z,6.10
2018-01-07T23:00:12.123Z,6.10
2018-01-07T23:02:39.604Z,6.20
2018-01-07T23:05:07.107Z,6.10
2018-01-07T23:07:34.598Z,6.10
2018-01-07T23:10:02.088Z,6.10
2018-01-07T23:12:29.565Z,6.10
2018-01-07T23:14:57.065Z,6.10
2018-01-07T23:17:24.559Z,6.00
2018-01-07T23:19:52.061Z,6.10
2018-01-07T23:22:19.540Z,6.10
2018-01-07T23:24:47.040Z,6.10
2018-01-07T23:27:15.285Z,6.10
2018-01-07T23:29:42.787Z,6.00
2018-01-07T23:32:10.268Z,6.10
2018-01-07T23:34:38.510Z,6.10
2018-01-07T23:37:06.997Z,6.10
2018-01-07T23:39:34.467Z,6.10
2018-01-07T23:42:01.972Z,6.10
2018-01-07T23:44:29.448Z,6.10
2018-01-07T23:46:56.944Z,6.10
2018-01-07T23:49:24.420Z,6.10
2018-01-07T23:51:51.917Z,6.10
2018-01-07T23:54:19.397Z,6.10
2018-01-07T23:56:46.902Z,6.20
2018-01-07T23:59:14.379Z,6.20
